createdAt,value
2023-05-24T00:00:44.040Z,0.00
2023-05-24T00:01:43.807Z,0.00
2023-05-24T00:02:43.846Z,0.00
2023-05-24T00:03:43.973Z,0.00
2023-05-24T00:04:43.789Z,0.00
2023-05-24T00:05:43.782Z,0.00
2023-05-24T00:06:43.761Z,0.00
2023-05-24T00:07:43.729Z,0.00
2023-05-24T00:08:43.776Z,0.00
2023-05-24T00:09:43.771Z,0.00
2023-05-24T00:10:44.062Z,0.00
2023-05-24T00:11:43.700Z,0.00
2023-05-24T00:12:43.738Z,0.00
2023-05-24T00:13:43.656Z,0.00
2023-05-24T00:14:43.684Z,0.00
2023-05-24T00:15:43.674Z,0.00
2023-05-24T00:16:43.672Z,0.00
2023-05-24T00:17:43.662Z,0.00
2023-05-24T00:18:43.632Z,0.00
2023-05-24T00:19:43.638Z,0.00
2023-05-24T00:20:43.874Z,0.00
2023-05-24T00:21:43.596Z,0.00
2023-05-24T00:22:43.579Z,0.00
2023-05-24T00:23:43.592Z,0.00
2023-05-24T00:24:43.568Z,0.00
2023-05-24T00:25:43.579Z,0.00
2023-05-24T00:26:43.530Z,0.00
2023-05-24T00:27:43.560Z,0.00
2023-05-24T00:28:43.503Z,0.00
2023-05-24T00:29:43.505Z,0.00
2023-05-24T00:30:43.648Z,0.00
2023-05-24T00:31:43.563Z,0.00
2023-05-24T00:32:43.513Z,0.00
2023-05-24T00:33:43.471Z,0.00
2023-05-24T00:34:43.473Z,0.00
2023-05-24T00:35:43.455Z,0.00
2023-05-24T00:36:43.420Z,0.00
2023-05-24T00:37:43.440Z,0.00
2023-05-24T00:38:43.397Z,0.00
2023-05-24T00:39:43.405Z,0.00
2023-05-24T00:40:43.652Z,0.00
2023-05-24T00:41:43.398Z,0.00
2023-05-24T00:42:43.338Z,0.00
2023-05-24T00:43:43.384Z,0.00
2023-05-24T00:44:43.336Z,0.00
2023-05-24T00:45:43.461Z,0.00
2023-05-24T00:46:43.319Z,0.00
2023-05-24T00:47:43.346Z,0.00
2023-05-24T00:48:43.290Z,0.00
2023-05-24T00:49:43.307Z,0.00
2023-05-24T00:50:43.587Z,0.00
2023-05-24T00:51:43.340Z,0.00
2023-05-24T00:52:43.305Z,0.00
2023-05-24T00:53:43.252Z,0.00
2023-05-24T00:54:43.394Z,0.00
2023-05-24T00:55:43.242Z,0.00
2023-05-24T00:56:43.284Z,0.00
2023-05-24T00:57:43.272Z,0.00
2023-05-24T00:58:43.290Z,0.00
2023-05-24T00:59:43.210Z,0.00
2023-05-24T01:00:43.372Z,0.00
2023-05-24T01:01:43.246Z,0.00
2023-05-24T01:02:43.323Z,0.00
2023-05-24T01:03:43.412Z,0.00
2023-05-24T01:04:43.140Z,0.00
2023-05-24T01:05:43.182Z,0.00
2023-05-24T01:06:43.128Z,0.00
2023-05-24T01:07:43.125Z,0.00
2023-05-24T01:08:43.150Z,0.00
2023-05-24T01:09:43.086Z,0.00
2023-05-24T01:10:43.320Z,0.00
2023-05-24T01:11:43.190Z,0.00
2023-05-24T01:12:43.074Z,0.00
2023-05-24T01:13:43.096Z,0.00
2023-05-24T01:14:43.012Z,0.00
2023-05-24T01:15:43.151Z,0.00
2023-05-24T01:16:43.091Z,0.00
2023-05-24T01:17:43.135Z,0.00
2023-05-24T01:18:43.059Z,0.00
2023-05-24T01:19:43.043Z,0.00
2023-05-24T01:20:43.247Z,0.00
2023-05-24T01:21:42.997Z,0.00
2023-05-24T01:22:43.044Z,0.00
2023-05-24T01:23:42.955Z,0.00
2023-05-24T01:24:42.946Z,0.00
2023-05-24T01:25:42.947Z,0.00
2023-05-24T01:26:42.898Z,0.00
2023-05-24T01:27:42.906Z,0.00
2023-05-24T01:28:42.894Z,0.00
2023-05-24T01:29:42.887Z,0.00
2023-05-24T01:30:43.115Z,0.00
2023-05-24T01:31:42.911Z,0.00
2023-05-24T01:32:42.871Z,0.00
2023-05-24T01:33:42.857Z,0.00
2023-05-24T01:34:42.818Z,0.00
2023-05-24T01:35:42.887Z,0.00
2023-05-24T01:36:42.788Z,0.00
2023-05-24T01:37:42.832Z,0.00
2023-05-24T01:38:42.802Z,0.00
2023-05-24T01:39:42.774Z,0.00
2023-05-24T01:40:42.976Z,0.00
2023-05-24T01:41:42.757Z,0.00
2023-05-24T01:42:42.836Z,0.00
2023-05-24T01:43:42.745Z,0.00
2023-05-24T01:44:42.761Z,0.00
2023-05-24T01:45:42.724Z,0.00
2023-05-24T01:46:42.750Z,0.00
2023-05-24T01:47:42.754Z,0.00
2023-05-24T01:48:42.700Z,0.00
2023-05-24T01:49:42.687Z,0.00
2023-05-24T01:50:42.796Z,0.00
2023-05-24T01:51:42.706Z,0.00
2023-05-24T01:52:42.655Z,0.00
2023-05-24T01:53:42.668Z,0.00
2023-05-24T01:54:42.615Z,0.00
2023-05-24T01:55:42.604Z,0.00
2023-05-24T01:56:42.583Z,0.00
2023-05-24T01:57:42.604Z,0.00
2023-05-24T01:58:42.579Z,0.00
2023-05-24T01:59:42.572Z,0.00
2023-05-24T02:00:42.787Z,0.00
2023-05-24T02:01:42.585Z,0.00
2023-05-24T02:02:42.583Z,0.00
2023-05-24T02:03:42.517Z,0.00
2023-05-24T02:04:42.516Z,0.00
2023-05-24T02:05:42.532Z,0.00
2023-05-24T02:06:42.535Z,0.00
2023-05-24T02:07:42.532Z,0.00
2023-05-24T02:08:42.485Z,0.00
2023-05-24T02:09:42.466Z,0.00
2023-05-24T02:10:42.638Z,0.00
2023-05-24T02:11:42.469Z,0.00
2023-05-24T02:12:42.429Z,0.00
2023-05-24T02:13:42.598Z,0.00
2023-05-24T02:14:42.405Z,0.00
2023-05-24T02:15:42.406Z,0.00
2023-05-24T02:16:42.482Z,0.00
2023-05-24T02:17:42.427Z,0.00
2023-05-24T02:18:42.363Z,0.00
2023-05-24T02:19:42.365Z,0.00
2023-05-24T02:20:42.583Z,0.00
2023-05-24T02:21:42.356Z,0.00
2023-05-24T02:22:42.320Z,0.00
2023-05-24T02:23:42.345Z,0.00
2023-05-24T02:24:42.326Z,0.00
2023-05-24T02:25:42.297Z,0.00
2023-05-24T02:26:42.292Z,0.00
2023-05-24T02:27:42.292Z,0.00
2023-05-24T02:28:42.256Z,0.00
2023-05-24T02:29:42.241Z,0.00
2023-05-24T02:30:42.409Z,0.00
2023-05-24T02:31:42.264Z,0.00
2023-05-24T02:32:42.229Z,0.00
2023-05-24T02:33:42.198Z,0.00
2023-05-24T02:34:42.213Z,0.00
2023-05-24T02:35:42.199Z,0.00
2023-05-24T02:36:42.199Z,0.00
2023-05-24T02:37:42.161Z,0.00
2023-05-24T02:38:42.155Z,0.00
2023-05-24T02:39:42.173Z,0.00
2023-05-24T02:40:42.278Z,0.00
2023-05-24T02:41:42.129Z,0.00
2023-05-24T02:42:42.110Z,0.00
2023-05-24T02:43:42.127Z,0.00
2023-05-24T02:44:42.163Z,0.00
2023-05-24T02:45:42.103Z,0.00
2023-05-24T02:46:42.083Z,0.00
2023-05-24T02:47:42.118Z,0.00
2023-05-24T02:48:42.037Z,0.00
2023-05-24T02:49:42.034Z,0.00
2023-05-24T02:50:54.048Z,0.00
2023-05-24T02:51:42.009Z,0.00
2023-05-24T02:52:41.988Z,0.00
2023-05-24T02:53:42.000Z,0.00
2023-05-24T02:54:41.986Z,0.00
2023-05-24T02:55:41.993Z,0.00
2023-05-24T02:56:41.977Z,0.00
2023-05-24T02:57:41.974Z,0.00
2023-05-24T02:58:41.951Z,0.00
2023-05-24T02:59:41.944Z,0.00
2023-05-24T03:00:42.160Z,0.00
2023-05-24T03:01:42.046Z,0.00
2023-05-24T03:02:42.015Z,0.00
2023-05-24T03:03:41.976Z,0.00
2023-05-24T03:04:41.910Z,0.00
2023-05-24T03:05:41.901Z,0.00
2023-05-24T03:06:41.834Z,0.00
2023-05-24T03:07:41.831Z,0.00
2023-05-24T03:08:41.831Z,0.00
2023-05-24T03:09:41.917Z,0.00
2023-05-24T03:10:42.030Z,0.00
2023-05-24T03:11:41.838Z,0.00
2023-05-24T03:12:41.801Z,5.62
2023-05-24T03:13:41.787Z,5.62
2023-05-24T03:14:41.760Z,5.62
2023-05-24T03:15:41.825Z,5.62
2023-05-24T03:16:41.908Z,5.62
2023-05-24T03:17:41.830Z,5.62
2023-05-24T03:18:41.718Z,5.62
2023-05-24T03:19:41.692Z,5.62
2023-05-24T03:20:41.942Z,5.62
2023-05-24T03:21:41.724Z,5.62
2023-05-24T03:22:41.688Z,5.62
2023-05-24T03:23:41.695Z,11.25
2023-05-24T03:24:41.664Z,11.25
2023-05-24T03:25:41.676Z,11.25
2023-05-24T03:26:41.643Z,11.25
2023-05-24T03:27:41.631Z,11.25
2023-05-24T03:28:41.650Z,11.25
2023-05-24T03:29:41.602Z,11.25
2023-05-24T03:30:41.818Z,11.25
2023-05-24T03:31:41.677Z,11.25
2023-05-24T03:32:41.642Z,16.88
2023-05-24T03:33:41.589Z,16.88
2023-05-24T03:34:41.567Z,16.88
2023-05-24T03:35:41.582Z,16.88
2023-05-24T03:36:41.572Z,16.88
2023-05-24T03:37:41.535Z,22.50
2023-05-24T03:38:41.516Z,22.50
2023-05-24T03:39:41.552Z,22.50
2023-05-24T03:40:41.658Z,22.50
2023-05-24T03:41:41.460Z,28.12
2023-05-24T03:42:41.463Z,28.12
2023-05-24T03:43:41.449Z,28.12
2023-05-24T03:44:41.424Z,28.12
2023-05-24T03:45:41.490Z,28.12
2023-05-24T03:46:41.755Z,28.12
2023-05-24T03:47:41.430Z,28.12
2023-05-24T03:48:41.394Z,28.12
2023-05-24T03:49:41.398Z,28.12
2023-05-24T03:50:41.675Z,28.12
2023-05-24T03:51:41.388Z,28.12
2023-05-24T03:52:41.363Z,28.12
2023-05-24T03:53:41.331Z,28.12
2023-05-24T03:55:33.336Z,28.12
2023-05-24T03:56:33.309Z,28.12
2023-05-24T03:57:34.078Z,28.12
2023-05-24T03:58:33.325Z,33.75
2023-05-24T03:59:33.298Z,33.75
2023-05-24T04:00:33.251Z,33.75
2023-05-24T04:01:34.956Z,33.75
2023-05-24T04:02:33.321Z,33.75
2023-05-24T04:03:33.298Z,39.38
2023-05-24T04:04:33.228Z,39.38
2023-05-24T04:05:33.214Z,45.00
2023-05-24T04:06:33.228Z,45.00
2023-05-24T04:07:33.237Z,45.00
2023-05-24T04:08:33.183Z,50.62
2023-05-24T04:09:33.161Z,50.62
2023-05-24T04:10:33.169Z,50.62
2023-05-24T04:11:33.157Z,50.62
2023-05-24T04:12:33.164Z,56.25
2023-05-24T04:13:33.136Z,56.25
2023-05-24T04:14:33.174Z,61.88
2023-05-24T04:15:33.077Z,61.88
2023-05-24T04:16:33.106Z,67.50
2023-05-24T04:17:33.206Z,67.50
2023-05-24T04:18:33.204Z,73.12
2023-05-24T04:19:33.047Z,78.75
2023-05-24T04:20:33.189Z,84.38
2023-05-24T04:21:33.018Z,90.00
2023-05-24T04:22:33.049Z,95.62
2023-05-24T04:23:33.010Z,95.62
2023-05-24T04:24:33.028Z,101.25
2023-05-24T04:25:33.004Z,101.25
2023-05-24T04:26:32.992Z,106.88
2023-05-24T04:27:32.972Z,112.50
2023-05-24T04:28:32.976Z,112.50
2023-05-24T04:29:32.950Z,118.12
2023-05-24T04:30:32.945Z,118.12
2023-05-24T04:31:32.956Z,123.75
2023-05-24T04:32:33.051Z,123.75
2023-05-24T04:33:32.920Z,129.38
2023-05-24T04:34:32.948Z,129.38
2023-05-24T04:35:32.989Z,140.62
2023-05-24T04:36:32.898Z,146.25
2023-05-24T04:37:32.873Z,140.62
2023-05-24T04:38:32.866Z,140.62
2023-05-24T04:39:32.818Z,140.62
2023-05-24T04:40:32.853Z,140.62
2023-05-24T04:41:32.801Z,140.62
2023-05-24T04:42:32.841Z,151.88
2023-05-24T04:43:32.813Z,151.88
2023-05-24T04:44:32.802Z,168.75
2023-05-24T04:45:32.800Z,174.38
2023-05-24T04:46:32.775Z,180.00
2023-05-24T04:47:32.781Z,185.62
2023-05-24T04:48:32.972Z,191.25
2023-05-24T04:49:32.730Z,180.00
2023-05-24T04:50:32.745Z,191.25
2023-05-24T04:51:32.726Z,185.62
2023-05-24T04:52:32.706Z,185.62
2023-05-24T04:53:32.742Z,185.62
2023-05-24T04:54:32.687Z,185.62
2023-05-24T04:55:32.688Z,185.62
2023-05-24T04:56:32.697Z,185.62
2023-05-24T04:57:32.679Z,180.00
2023-05-24T04:58:32.673Z,174.38
2023-05-24T04:59:32.618Z,174.38
2023-05-24T05:00:32.692Z,180.00
2023-05-24T05:01:32.618Z,180.00
2023-05-24T05:02:32.752Z,180.00
2023-05-24T05:03:32.740Z,185.62
2023-05-24T05:04:32.609Z,191.25
2023-05-24T05:05:32.572Z,196.88
2023-05-24T05:06:32.605Z,213.75
2023-05-24T05:07:32.569Z,213.75
2023-05-24T05:08:32.575Z,213.75
2023-05-24T05:09:32.516Z,225.00
2023-05-24T05:10:32.534Z,264.38
2023-05-24T05:11:32.481Z,264.38
2023-05-24T05:12:32.505Z,253.12
2023-05-24T05:13:32.512Z,275.62
2023-05-24T05:14:32.474Z,236.25
2023-05-24T05:15:32.474Z,208.12
2023-05-24T05:16:32.523Z,213.75
2023-05-24T05:17:32.489Z,208.12
2023-05-24T05:18:32.440Z,213.75
2023-05-24T05:19:32.518Z,219.38
2023-05-24T05:20:32.447Z,230.62
2023-05-24T05:21:32.373Z,241.88
2023-05-24T05:22:32.417Z,247.50
2023-05-24T05:23:32.414Z,286.88
2023-05-24T05:24:32.361Z,331.88
2023-05-24T05:25:32.352Z,343.12
2023-05-24T05:26:32.339Z,320.62
2023-05-24T05:27:32.331Z,320.62
2023-05-24T05:28:32.353Z,337.50
2023-05-24T05:29:32.288Z,309.38
2023-05-24T05:30:32.299Z,309.38
2023-05-24T05:31:32.303Z,320.62
2023-05-24T05:32:32.439Z,320.62
2023-05-24T05:33:32.304Z,309.38
2023-05-24T05:34:32.298Z,326.25
2023-05-24T05:35:32.252Z,315.00
2023-05-24T05:36:32.275Z,298.12
2023-05-24T05:37:32.226Z,281.25
2023-05-24T05:38:32.241Z,281.25
2023-05-24T05:39:32.234Z,292.50
2023-05-24T05:40:32.169Z,343.12
2023-05-24T05:41:32.158Z,292.50
2023-05-24T05:42:32.166Z,320.62
2023-05-24T05:43:32.192Z,309.38
2023-05-24T05:44:32.146Z,303.75
2023-05-24T05:45:32.144Z,303.75
2023-05-24T05:46:32.264Z,303.75
2023-05-24T05:47:32.154Z,315.00
2023-05-24T05:48:32.128Z,376.88
2023-05-24T05:49:32.073Z,326.25
2023-05-24T05:50:32.214Z,405.00
2023-05-24T05:51:32.072Z,331.88
2023-05-24T05:52:32.056Z,326.25
2023-05-24T05:53:32.038Z,343.12
2023-05-24T05:54:32.081Z,343.12
2023-05-24T05:55:32.035Z,354.38
2023-05-24T05:56:32.054Z,365.62
2023-05-24T05:57:31.978Z,376.88
2023-05-24T05:58:31.996Z,371.25
2023-05-24T05:59:31.982Z,365.62
2023-05-24T06:00:32.012Z,365.62
2023-05-24T06:01:32.024Z,365.62
2023-05-24T06:02:32.080Z,371.25
2023-05-24T06:03:32.000Z,416.25
2023-05-24T06:04:31.987Z,410.62
2023-05-24T06:05:31.908Z,438.75
2023-05-24T06:06:31.910Z,495.00
2023-05-24T06:07:31.996Z,523.12
2023-05-24T06:08:31.972Z,500.62
2023-05-24T06:09:31.860Z,438.75
2023-05-24T06:10:31.905Z,506.25
2023-05-24T06:11:31.841Z,461.25
2023-05-24T06:12:31.856Z,427.50
2023-05-24T06:13:31.826Z,511.88
2023-05-24T06:14:31.852Z,534.38
2023-05-24T06:15:31.810Z,534.38
2023-05-24T06:16:31.951Z,523.12
2023-05-24T06:17:31.820Z,540.00
2023-05-24T06:18:31.787Z,511.88
2023-05-24T06:19:31.746Z,495.00
2023-05-24T06:20:31.825Z,523.12
2023-05-24T06:21:31.754Z,472.50
2023-05-24T06:22:31.837Z,472.50
2023-05-24T06:23:31.692Z,500.62
2023-05-24T06:24:31.711Z,523.12
2023-05-24T06:25:31.743Z,511.88
2023-05-24T06:26:31.694Z,489.38
2023-05-24T06:27:31.704Z,455.62
2023-05-24T06:28:31.694Z,534.38
2023-05-24T06:29:31.678Z,489.38
2023-05-24T06:30:31.881Z,461.25
2023-05-24T06:31:31.648Z,478.12
2023-05-24T06:32:31.644Z,466.88
2023-05-24T06:33:31.586Z,545.62
2023-05-24T06:34:31.608Z,489.38
2023-05-24T06:35:31.607Z,450.00
2023-05-24T06:36:31.570Z,450.00
2023-05-24T06:37:31.561Z,455.62
2023-05-24T06:38:31.566Z,455.62
2023-05-24T06:39:31.556Z,461.25
2023-05-24T06:40:31.588Z,438.75
2023-05-24T06:41:31.556Z,421.88
2023-05-24T06:42:31.515Z,416.25
2023-05-24T06:43:31.505Z,416.25
2023-05-24T06:44:31.517Z,433.12
2023-05-24T06:45:31.482Z,450.00
2023-05-24T06:46:31.550Z,444.38
2023-05-24T06:47:31.568Z,438.75
2023-05-24T06:48:31.554Z,444.38
2023-05-24T06:49:31.421Z,450.00
2023-05-24T06:50:31.450Z,455.62
2023-05-24T06:51:31.439Z,444.38
2023-05-24T06:52:31.526Z,427.50
2023-05-24T06:53:31.422Z,421.88
2023-05-24T06:54:31.397Z,433.12
2023-05-24T06:55:31.358Z,466.88
2023-05-24T06:56:31.406Z,466.88
2023-05-24T06:57:31.334Z,444.38
2023-05-24T06:58:31.352Z,438.75
2023-05-24T06:59:31.314Z,444.38
2023-05-24T07:00:31.320Z,444.38
2023-05-24T07:01:31.312Z,455.62
2023-05-24T07:02:31.322Z,461.25
2023-05-24T07:03:31.287Z,444.38
2023-05-24T07:04:31.340Z,427.50
2023-05-24T07:05:31.261Z,399.38
2023-05-24T07:06:31.372Z,371.25
2023-05-24T07:08:41.363Z,348.75
2023-05-24T07:09:41.367Z,348.75
2023-05-24T07:10:44.277Z,348.75
2023-05-24T07:11:41.376Z,348.75
2023-05-24T07:12:41.301Z,348.75
2023-05-24T07:13:41.300Z,343.12
2023-05-24T07:14:41.288Z,348.75
2023-05-24T07:15:41.275Z,360.00
2023-05-24T07:16:41.334Z,376.88
2023-05-24T07:17:41.316Z,399.38
2023-05-24T07:18:41.224Z,450.00
2023-05-24T07:19:41.248Z,478.12
2023-05-24T07:20:41.702Z,562.50
2023-05-24T07:21:41.207Z,517.50
2023-05-24T07:22:41.234Z,500.62
2023-05-24T07:23:41.175Z,478.12
2023-05-24T07:24:41.173Z,551.25
2023-05-24T07:25:41.164Z,489.38
2023-05-24T07:26:41.165Z,472.50
2023-05-24T07:27:41.149Z,495.00
2023-05-24T07:28:41.135Z,528.75
2023-05-24T07:29:41.135Z,540.00
2023-05-24T07:30:41.095Z,562.50
2023-05-24T07:31:41.144Z,714.38
2023-05-24T07:32:41.226Z,742.50
2023-05-24T07:33:41.077Z,753.75
2023-05-24T07:34:41.055Z,736.88
2023-05-24T07:35:41.074Z,691.88
2023-05-24T07:36:41.032Z,646.88
2023-05-24T07:37:41.036Z,652.50
2023-05-24T07:38:41.021Z,646.88
2023-05-24T07:39:41.028Z,601.88
2023-05-24T07:40:41.107Z,596.25
2023-05-24T07:41:40.998Z,579.38
2023-05-24T07:42:40.967Z,568.12
2023-05-24T07:43:40.966Z,556.88
2023-05-24T07:44:40.952Z,534.38
2023-05-24T07:45:41.203Z,517.50
2023-05-24T07:46:40.996Z,517.50
2023-05-24T07:47:40.972Z,540.00
2023-05-24T07:48:40.902Z,562.50
2023-05-24T07:49:40.910Z,585.00
2023-05-24T07:50:41.069Z,596.25
2023-05-24T07:51:40.917Z,585.00
2023-05-24T07:52:40.863Z,624.38
2023-05-24T07:53:40.961Z,624.38
2023-05-24T07:54:40.854Z,635.62
2023-05-24T07:55:41.192Z,618.75
2023-05-24T07:56:40.814Z,641.25
2023-05-24T07:57:40.838Z,686.25
2023-05-24T07:58:40.832Z,725.62
2023-05-24T07:59:40.800Z,697.50
2023-05-24T08:00:40.774Z,675.00
2023-05-24T08:01:40.769Z,652.50
2023-05-24T08:02:40.841Z,624.38
2023-05-24T08:03:40.844Z,601.88
2023-05-24T08:04:40.722Z,562.50
2023-05-24T08:05:40.872Z,523.12
2023-05-24T08:06:40.808Z,500.62
2023-05-24T08:07:40.726Z,478.12
2023-05-24T08:08:40.727Z,450.00
2023-05-24T08:09:40.684Z,438.75
2023-05-24T08:10:40.686Z,421.88
2023-05-24T08:11:40.687Z,405.00
2023-05-24T08:12:40.692Z,382.50
2023-05-24T08:13:40.633Z,360.00
2023-05-24T08:14:40.670Z,331.88
2023-05-24T08:15:40.894Z,298.12
2023-05-24T08:16:40.751Z,275.62
2023-05-24T08:17:40.648Z,253.12
2023-05-24T08:18:40.598Z,236.25
2023-05-24T08:19:40.595Z,225.00
2023-05-24T08:20:40.629Z,219.38
2023-05-24T08:21:40.548Z,230.62
2023-05-24T08:22:40.529Z,247.50
2023-05-24T08:23:40.523Z,264.38
2023-05-24T08:24:40.706Z,281.25
2023-05-24T08:25:40.710Z,309.38
2023-05-24T08:26:40.503Z,331.88
2023-05-24T08:27:40.496Z,354.38
2023-05-24T08:28:40.490Z,371.25
2023-05-24T08:29:40.457Z,376.88
2023-05-24T08:30:40.468Z,388.12
2023-05-24T08:31:40.599Z,388.12
2023-05-24T08:32:40.472Z,382.50
2023-05-24T08:33:40.417Z,376.88
2023-05-24T08:34:40.417Z,360.00
2023-05-24T08:35:40.598Z,343.12
2023-05-24T08:36:40.383Z,326.25
2023-05-24T08:37:40.361Z,320.62
2023-05-24T08:38:40.346Z,320.62
2023-05-24T08:39:40.365Z,326.25
2023-05-24T08:40:40.347Z,326.25
2023-05-24T08:41:40.324Z,331.88
2023-05-24T08:42:40.312Z,331.88
2023-05-24T08:43:40.345Z,326.25
2023-05-24T08:44:40.288Z,326.25
2023-05-24T08:45:40.439Z,315.00
2023-05-24T08:46:40.306Z,309.38
2023-05-24T08:47:40.346Z,303.75
2023-05-24T08:48:40.280Z,309.38
2023-05-24T08:49:40.241Z,315.00
2023-05-24T08:50:40.235Z,326.25
2023-05-24T08:51:40.218Z,331.88
2023-05-24T08:52:40.187Z,331.88
2023-05-24T08:53:40.213Z,326.25
2023-05-24T08:54:40.184Z,320.62
2023-05-24T08:55:40.663Z,315.00
2023-05-24T08:56:40.159Z,320.62
2023-05-24T08:57:40.209Z,326.25
2023-05-24T08:58:40.161Z,331.88
2023-05-24T08:59:40.142Z,337.50
2023-05-24T09:00:40.125Z,337.50
2023-05-24T09:01:40.169Z,331.88
2023-05-24T09:02:40.154Z,320.62
2023-05-24T09:03:40.212Z,309.38
2023-05-24T09:04:40.121Z,298.12
2023-05-24T09:05:40.215Z,292.50
2023-05-24T09:06:40.057Z,281.25
2023-05-24T09:07:40.058Z,275.62
2023-05-24T09:08:42.345Z,270.00
2023-05-24T09:09:40.061Z,264.38
2023-05-24T09:10:52.818Z,258.75
2023-05-24T09:11:41.028Z,258.75
2023-05-24T09:12:40.026Z,253.12
2023-05-24T09:13:39.980Z,247.50
2023-05-24T09:14:39.936Z,241.88
2023-05-24T09:15:40.049Z,230.62
2023-05-24T09:16:40.031Z,219.38
2023-05-24T09:17:39.998Z,208.12
2023-05-24T09:18:39.929Z,191.25
2023-05-24T09:19:39.932Z,180.00
2023-05-24T09:20:39.965Z,174.38
2023-05-24T09:21:39.898Z,168.75
2023-05-24T09:22:41.466Z,174.38
2023-05-24T09:23:39.863Z,174.38
2023-05-24T09:24:39.853Z,168.75
2023-05-24T09:25:39.861Z,168.75
2023-05-24T09:26:39.828Z,168.75
2023-05-24T09:27:39.835Z,168.75
2023-05-24T09:28:39.812Z,168.75
2023-05-24T09:29:39.851Z,168.75
2023-05-24T09:30:39.798Z,168.75
2023-05-24T09:31:40.049Z,174.38
2023-05-24T09:32:39.844Z,180.00
2023-05-24T09:33:39.768Z,180.00
2023-05-24T09:34:39.747Z,191.25
2023-05-24T09:35:39.735Z,202.50
2023-05-24T09:36:39.726Z,213.75
2023-05-24T09:37:39.727Z,219.38
2023-05-24T09:38:39.881Z,225.00
2023-05-24T09:39:39.706Z,225.00
2023-05-24T09:40:39.745Z,225.00
2023-05-24T09:41:39.696Z,225.00
2023-05-24T09:42:39.654Z,230.62
2023-05-24T09:43:39.658Z,230.62
2023-05-24T09:44:39.643Z,241.88
2023-05-24T09:45:39.660Z,253.12
2023-05-24T09:46:39.671Z,270.00
2023-05-24T09:47:39.670Z,281.25
2023-05-24T09:48:39.604Z,286.88
2023-05-24T09:49:39.618Z,298.12
2023-05-24T09:50:39.638Z,303.75
2023-05-24T09:51:39.693Z,315.00
2023-05-24T09:52:39.555Z,337.50
2023-05-24T09:53:39.559Z,360.00
2023-05-24T09:54:39.523Z,376.88
2023-05-24T09:55:39.548Z,405.00
2023-05-24T09:56:39.703Z,433.12
2023-05-24T09:57:39.515Z,450.00
2023-05-24T09:58:39.490Z,472.50
2023-05-24T09:59:39.489Z,495.00
2023-05-24T10:00:39.672Z,517.50
2023-05-24T10:01:39.534Z,562.50
2023-05-24T10:02:51.727Z,585.00
2023-05-24T10:03:40.538Z,585.00
2023-05-24T10:04:39.490Z,596.25
2023-05-24T10:05:39.409Z,618.75
2023-05-24T10:06:39.396Z,624.38
2023-05-24T10:07:39.407Z,618.75
2023-05-24T10:08:39.382Z,601.88
2023-05-24T10:09:39.398Z,556.88
2023-05-24T10:10:39.370Z,483.75
2023-05-24T10:11:39.363Z,421.88
2023-05-24T10:12:39.339Z,376.88
2023-05-24T10:13:39.351Z,331.88
2023-05-24T10:14:39.339Z,303.75
2023-05-24T10:15:39.349Z,292.50
2023-05-24T10:16:39.380Z,281.25
2023-05-24T10:17:39.327Z,275.62
2023-05-24T10:18:39.264Z,270.00
2023-05-24T10:19:39.298Z,258.75
2023-05-24T10:20:39.325Z,258.75
2023-05-24T10:21:39.286Z,258.75
2023-05-24T10:22:39.232Z,258.75
2023-05-24T10:23:39.256Z,258.75
2023-05-24T10:24:39.201Z,258.75
2023-05-24T10:25:39.205Z,253.12
2023-05-24T10:26:39.199Z,253.12
2023-05-24T10:27:39.262Z,241.88
2023-05-24T10:28:39.176Z,236.25
2023-05-24T10:29:39.170Z,236.25
2023-05-24T10:30:39.187Z,230.62
2023-05-24T10:31:39.309Z,225.00
2023-05-24T10:32:39.246Z,219.38
2023-05-24T10:33:39.114Z,213.75
2023-05-24T10:34:39.107Z,213.75
2023-05-24T10:35:39.087Z,219.38
2023-05-24T10:36:39.082Z,230.62
2023-05-24T10:37:39.062Z,236.25
2023-05-24T10:38:39.113Z,241.88
2023-05-24T10:39:39.040Z,247.50
2023-05-24T10:40:39.046Z,247.50
2023-05-24T10:41:39.047Z,247.50
2023-05-24T10:42:39.005Z,241.88
2023-05-24T10:43:39.014Z,241.88
2023-05-24T10:44:39.029Z,247.50
2023-05-24T10:45:38.962Z,258.75
2023-05-24T10:46:39.012Z,270.00
2023-05-24T10:47:39.310Z,275.62
2023-05-24T10:48:38.965Z,286.88
2023-05-24T10:49:38.917Z,286.88
2023-05-24T10:50:38.928Z,292.50
2023-05-24T10:51:39.100Z,292.50
2023-05-24T10:52:38.905Z,303.75
2023-05-24T10:53:38.881Z,309.38
2023-05-24T10:54:44.748Z,326.25
2023-05-24T10:55:39.877Z,348.75
2023-05-24T10:56:38.853Z,354.38
2023-05-24T10:57:38.850Z,348.75
2023-05-24T10:58:38.957Z,337.50
2023-05-24T10:59:38.845Z,326.25
2023-05-24T11:00:38.843Z,309.38
2023-05-24T11:01:38.884Z,303.75
2023-05-24T11:02:38.856Z,292.50
2023-05-24T11:03:38.780Z,281.25
2023-05-24T11:04:38.799Z,281.25
2023-05-24T11:05:38.823Z,292.50
2023-05-24T11:06:38.759Z,303.75
2023-05-24T11:07:38.732Z,315.00
2023-05-24T11:08:38.734Z,315.00
2023-05-24T11:09:38.709Z,309.38
2023-05-24T11:10:38.719Z,309.38
2023-05-24T11:11:38.680Z,303.75
2023-05-24T11:12:38.728Z,315.00
2023-05-24T11:13:38.679Z,320.62
2023-05-24T11:14:38.661Z,331.88
2023-05-24T11:15:38.641Z,348.75
2023-05-24T11:16:39.551Z,365.62
2023-05-24T11:17:39.472Z,382.50
2023-05-24T11:18:38.640Z,405.00
2023-05-24T11:19:38.634Z,427.50
2023-05-24T11:20:38.652Z,444.38
2023-05-24T11:21:38.573Z,461.25
2023-05-24T11:22:38.599Z,506.25
2023-05-24T11:23:38.628Z,556.88
2023-05-24T11:24:38.559Z,613.12
2023-05-24T11:25:38.542Z,663.75
2023-05-24T11:26:38.535Z,708.75
2023-05-24T11:27:38.521Z,736.88
2023-05-24T11:28:38.568Z,748.12
2023-05-24T11:29:38.545Z,753.75
2023-05-24T11:30:38.500Z,753.75
2023-05-24T11:31:41.586Z,748.12
2023-05-24T11:32:38.509Z,742.50
2023-05-24T11:33:38.455Z,720.00
2023-05-24T11:34:38.453Z,691.88
2023-05-24T11:35:38.410Z,669.38
2023-05-24T11:36:38.416Z,663.75
2023-05-24T11:37:46.475Z,663.75
2023-05-24T11:38:39.430Z,658.12
2023-05-24T11:39:38.381Z,641.25
2023-05-24T11:40:38.376Z,624.38
2023-05-24T11:41:38.364Z,607.50
2023-05-24T11:42:38.370Z,579.38
2023-05-24T11:43:38.329Z,562.50
2023-05-24T11:44:38.374Z,534.38
2023-05-24T11:45:38.329Z,500.62
2023-05-24T11:46:38.317Z,478.12
2023-05-24T11:47:38.402Z,483.75
2023-05-24T11:48:38.718Z,511.88
2023-05-24T11:49:38.270Z,551.25
2023-05-24T11:50:48.769Z,596.25
2023-05-24T11:51:39.264Z,607.50
2023-05-24T11:52:38.241Z,613.12
2023-05-24T11:53:38.225Z,601.88
2023-05-24T11:54:38.216Z,579.38
2023-05-24T11:55:38.198Z,551.25
2023-05-24T11:56:38.214Z,511.88
2023-05-24T11:57:38.195Z,478.12
2023-05-24T11:58:38.168Z,450.00
2023-05-24T11:59:38.227Z,421.88
2023-05-24T12:00:38.256Z,405.00
2023-05-24T12:01:38.327Z,399.38
2023-05-24T12:02:38.273Z,410.62
2023-05-24T12:03:38.324Z,416.25
2023-05-24T12:04:38.222Z,410.62
2023-05-24T12:05:38.080Z,405.00
2023-05-24T12:06:38.101Z,399.38
2023-05-24T12:07:38.067Z,393.75
2023-05-24T12:08:38.065Z,388.12
2023-05-24T12:09:38.070Z,376.88
2023-05-24T12:10:38.071Z,371.25
2023-05-24T12:11:38.014Z,371.25
2023-05-24T12:12:45.687Z,388.12
2023-05-24T12:13:39.012Z,433.12
2023-05-24T12:14:38.009Z,495.00
2023-05-24T12:15:38.051Z,528.75
2023-05-24T12:16:38.124Z,540.00
2023-05-24T12:17:37.974Z,545.62
2023-05-24T12:18:41.445Z,534.38
2023-05-24T12:19:38.953Z,511.88
2023-05-24T12:20:38.092Z,483.75
2023-05-24T12:21:37.932Z,461.25
2023-05-24T12:22:37.904Z,444.38
2023-05-24T12:23:37.916Z,427.50
2023-05-24T12:24:37.955Z,399.38
2023-05-24T12:25:37.879Z,382.50
2023-05-24T12:26:37.892Z,376.88
2023-05-24T12:27:37.857Z,376.88
2023-05-24T12:28:37.865Z,371.25
2023-05-24T12:29:37.975Z,360.00
2023-05-24T12:30:37.831Z,343.12
2023-05-24T12:31:37.883Z,326.25
2023-05-24T12:32:37.883Z,315.00
2023-05-24T12:33:37.785Z,309.38
2023-05-24T12:34:37.786Z,298.12
2023-05-24T12:35:37.770Z,298.12
2023-05-24T12:36:37.775Z,286.88
2023-05-24T12:37:37.756Z,281.25
2023-05-24T12:38:37.734Z,270.00
2023-05-24T12:39:37.739Z,264.38
2023-05-24T12:40:37.736Z,253.12
2023-05-24T12:41:37.721Z,253.12
2023-05-24T12:42:37.719Z,258.75
2023-05-24T12:43:37.706Z,258.75
2023-05-24T12:44:37.687Z,258.75
2023-05-24T12:45:37.730Z,253.12